Time;durP1;ratioP1;P1;durP2;ratioP2;P2;SDS_P1;SDS_P2;PMS_P1;PMS_P2;Temp;Humidity;BMP_temperature;BMP_pressure;BME280_temperature;BME280_humidity;BME280_pressure;Samples;Min_cycle;Max_cycle;Signal;HPM_P1;HPM_P2
2022/03/24 00:02:03;;;;;;;1.15;0.60;;;23.00;57.40;;;;;;5082182;28;20055;-43
2022/03/24 00:04:29;;;;;;;0.95;0.55;;;23.00;57.50;;;;;;5081977;28;20511;-42
2022/03/24 00:06:55;;;;;;;0.60;0.60;;;23.00;57.50;;;;;;5082016;28;20025;-41
2022/03/24 00:09:21;;;;;;;1.38;0.60;;;23.00;57.50;;;;;;5080843;28;20197;-43
2022/03/24 00:11:47;;;;;;;0.60;0.60;;;23.00;57.50;;;;;;5082012;28;20039;-43
2022/03/24 00:14:14;;;;;;;0.90;0.50;;;23.00;57.50;;;;;;5083288;28;20096;-43
2022/03/24 00:16:40;;;;;;;0.95;0.68;;;23.00;57.40;;;;;;5082089;28;20025;-43
2022/03/24 00:19:07;;;;;;;0.60;0.60;;;23.00;57.40;;;;;;5082049;28;20032;-43
2022/03/24 00:21:33;;;;;;;0.47;0.47;;;23.00;57.30;;;;;;5082301;28;20779;-44
2022/03/24 00:23:59;;;;;;;2.42;0.70;;;23.00;57.10;;;;;;5081828;28;20119;-44
2022/03/24 00:26:25;;;;;;;0.50;0.50;;;23.00;57.10;;;;;;5082028;28;20037;-44
2022/03/24 00:28:51;;;;;;;0.70;0.60;;;23.00;57.00;;;;;;5082088;28;20807;-43
2022/03/24 00:31:17;;;;;;;1.55;0.60;;;23.00;56.90;;;;;;5081994;28;20032;-44
2022/03/24 00:33:44;;;;;;;0.63;0.60;;;23.00;56.90;;;;;;5081740;28;20033;-44
2022/03/24 00:36:10;;;;;;;0.65;0.65;;;23.00;56.80;;;;;;5081246;28;20029;-44
2022/03/24 00:38:40;;;;;;;0.70;0.60;;;23.00;56.80;;;;;;5080506;28;20040;-44
2022/03/24 00:41:06;;;;;;;0.80;0.55;;;23.00;56.80;;;;;;5083654;28;20032;-45
2022/03/24 00:43:32;;;;;;;1.73;0.70;;;23.00;56.80;;;;;;5088288;28;20027;-45
2022/03/24 00:45:59;;;;;;;0.88;0.60;;;23.00;56.80;;;;;;5081580;28;20087;-43
2022/03/24 00:48:25;;;;;;;0.95;0.60;;;23.00;56.80;;;;;;5081458;28;20034;-44
2022/03/24 00:50:52;;;;;;;1.35;0.60;;;23.00;56.70;;;;;;5081579;28;20036;-43
2022/03/24 00:53:18;;;;;;;0.82;0.70;;;23.00;56.70;;;;;;5082314;28;20060;-44
2022/03/24 00:55:44;;;;;;;1.45;0.50;;;23.00;56.60;;;;;;5085771;28;20020;-45
2022/03/24 00:58:10;;;;;;;1.30;0.80;;;23.00;56.60;;;;;;5085550;28;20033;-43
2022/03/24 01:00:38;;;;;;;0.60;0.60;;;23.00;56.50;;;;;;5084928;28;20028;-44
2022/03/24 01:03:06;;;;;;;1.40;0.70;;;23.00;56.70;;;;;;5080258;28;20028;-44
2022/03/24 01:05:34;;;;;;;1.08;0.70;;;23.00;56.60;;;;;;5081947;28;20484;-44
2022/03/24 01:08:00;;;;;;;1.27;0.70;;;23.00;56.50;;;;;;5084581;28;20123;-43
2022/03/24 01:10:26;;;;;;;2.35;0.52;;;23.00;56.50;;;;;;5084315;28;20044;-43
2022/03/24 01:12:52;;;;;;;0.98;0.68;;;23.00;56.40;;;;;;5084873;28;20043;-40
2022/03/24 01:15:21;;;;;;;2.78;0.70;;;23.00;56.50;;;;;;5095183;28;20033;-40
2022/03/24 01:17:48;;;;;;;2.33;0.68;;;23.00;56.60;;;;;;5082788;28;20111;-40
2022/03/24 01:20:17;;;;;;;1.02;0.70;;;23.00;56.60;;;;;;5084684;28;20091;-40
2022/03/24 01:22:44;;;;;;;3.33;0.75;;;23.00;56.50;;;;;;5082285;28;20031;-43
2022/03/24 01:25:10;;;;;;;2.20;0.93;;;23.00;56.50;;;;;;5079266;28;20024;-43
2022/03/24 01:27:39;;;;;;;2.15;0.90;;;23.00;56.50;;;;;;5085468;28;20106;-40
2022/03/24 01:30:09;;;;;;;2.42;0.88;;;23.00;56.60;;;;;;5083007;28;20677;-41
2022/03/24 01:32:35;;;;;;;1.13;0.77;;;22.90;56.60;;;;;;5076237;28;20062;-41
2022/03/24 01:35:03;;;;;;;1.30;0.80;;;23.00;56.60;;;;;;5073250;28;20028;-41
2022/03/24 01:37:29;;;;;;;1.42;0.70;;;23.00;56.60;;;;;;5081163;28;20162;-41
2022/03/24 01:39:55;;;;;;;2.13;0.70;;;23.00;56.60;;;;;;5079695;28;20041;-41
2022/03/24 01:42:21;;;;;;;3.55;1.00;;;22.90;56.50;;;;;;5092791;28;20059;-42
2022/03/24 01:44:48;;;;;;;2.15;0.82;;;22.90;56.50;;;;;;5087291;28;20051;-41
2022/03/24 01:47:15;;;;;;;1.80;0.80;;;23.00;56.50;;;;;;5076503;28;20043;-43
2022/03/24 01:49:47;;;;;;;1.08;0.70;;;23.00;56.50;;;;;;5078973;28;20040;-42
2022/03/24 01:52:14;;;;;;;2.40;0.85;;;22.90;56.40;;;;;;5085052;28;20037;-41
2022/03/24 01:54:45;;;;;;;1.77;0.90;;;22.90;56.40;;;;;;5086082;28;20039;-41
2022/03/24 01:57:12;;;;;;;1.83;1.00;;;23.00;56.40;;;;;;5083737;28;20033;-42
2022/03/24 01:59:38;;;;;;;1.65;1.00;;;22.90;56.50;;;;;;5062790;28;20541;-40
2022/03/24 02:02:05;;;;;;;3.30;1.10;;;22.90;56.60;;;;;;5091116;28;20036;-46
2022/03/24 02:04:32;;;;;;;4.55;0.80;;;22.90;56.60;;;;;;5091357;28;20063;-54
2022/03/24 02:06:58;;;;;;;2.65;0.90;;;22.90;56.50;;;;;;5085293;28;20029;-41
2022/03/24 02:09:25;;;;;;;2.15;0.82;;;22.90;56.50;;;;;;5077865;28;20028;-40
2022/03/24 02:11:51;;;;;;;4.30;0.98;;;22.90;56.60;;;;;;5081232;28;20085;-42
2022/03/24 02:14:17;;;;;;;2.15;1.20;;;22.90;56.60;;;;;;5083627;28;20031;-42
2022/03/24 02:16:46;;;;;;;2.63;0.98;;;22.90;56.50;;;;;;5084628;28;20557;-40
2022/03/24 02:19:13;;;;;;;2.65;0.90;;;22.90;56.50;;;;;;5060859;28;20033;-41
2022/03/24 02:21:40;;;;;;;1.73;0.85;;;22.90;56.40;;;;;;5082728;28;20056;-41
2022/03/24 02:24:06;;;;;;;4.28;1.00;;;22.90;56.40;;;;;;5080377;28;20036;-41
2022/03/24 02:26:35;;;;;;;3.10;1.20;;;22.90;56.40;;;;;;5083238;28;20068;-40
2022/03/24 02:29:06;;;;;;;4.32;1.00;;;22.90;56.50;;;;;;5079125;28;20067;-40
2022/03/24 02:31:38;;;;;;;4.43;1.00;;;22.90;56.40;;;;;;5077898;28;20044;-40
2022/03/24 02:36:50;;;;;;;2.45;0.93;;;22.90;56.40;;;;;;5082323;28;20073;-40
2022/03/24 02:39:16;;;;;;;24.65;12.02;;;22.90;56.40;;;;;;5079546;28;20032;-42
2022/03/24 02:41:54;;;;;;;4.65;1.95;;;22.90;56.40;;;;;;5081650;28;20024;-42
2022/03/24 02:44:22;;;;;;;1.92;1.17;;;22.90;56.40;;;;;;5083216;28;20032;-42
2022/03/24 02:46:48;;;;;;;3.50;1.08;;;22.90;56.40;;;;;;5083041;28;20473;-43
2022/03/24 02:49:18;;;;;;;2.10;1.13;;;22.90;56.30;;;;;;5081377;28;20028;-42
2022/03/24 02:51:44;;;;;;;3.10;1.00;;;22.90;56.30;;;;;;5094696;28;20023;-41
2022/03/24 02:54:11;;;;;;;2.20;1.17;;;22.80;56.20;;;;;;5086492;28;20044;-42
2022/03/24 02:56:38;;;;;;;2.63;1.00;;;22.80;56.20;;;;;;5081510;28;20021;-43
2022/03/24 02:59:07;;;;;;;3.65;1.40;;;22.80;56.20;;;;;;5084739;28;20273;-42
2022/03/24 03:01:33;;;;;;;2.05;1.00;;;22.80;56.10;;;;;;5082985;28;20044;-43
2022/03/24 03:04:00;;;;;;;2.60;1.20;;;22.80;56.10;;;;;;5082014;28;20036;-43
2022/03/24 03:06:26;;;;;;;3.40;0.95;;;22.80;56.00;;;;;;5086429;28;20024;-44
2022/03/24 03:08:52;;;;;;;1.70;1.10;;;22.80;56.10;;;;;;5090128;28;20029;-46
2022/03/24 03:11:22;;;;;;;2.83;1.10;;;22.80;55.90;;;;;;5076388;28;20052;-44
2022/03/24 03:13:49;;;;;;;2.85;1.00;;;22.80;55.90;;;;;;5076122;28;20417;-44
2022/03/24 03:16:18;;;;;;;2.50;0.80;;;22.80;55.80;;;;;;5081920;28;20031;-44
2022/03/24 03:18:50;;;;;;;1.33;0.90;;;22.80;55.70;;;;;;5093579;28;20027;-43
2022/03/24 03:21:21;;;;;;;1.58;0.90;;;22.80;55.80;;;;;;5103498;28;20043;-43
2022/03/24 03:23:49;;;;;;;4.38;1.17;;;22.80;55.80;;;;;;5094673;28;20027;-43
2022/03/24 03:26:18;;;;;;;1.83;1.00;;;22.80;55.70;;;;;;5083484;28;20031;-43
2022/03/24 03:28:47;;;;;;;1.77;1.02;;;22.80;55.70;;;;;;5079266;28;20064;-43
2022/03/24 03:31:16;;;;;;;2.08;1.10;;;22.80;55.60;;;;;;5063136;28;20043;-43
2022/03/24 03:33:45;;;;;;;2.28;0.90;;;22.80;55.50;;;;;;5063072;28;20041;-43
2022/03/24 03:36:12;;;;;;;1.98;1.02;;;22.80;55.50;;;;;;5063535;28;20025;-43
2022/03/24 03:38:38;;;;;;;1.05;0.93;;;22.80;55.60;;;;;;5060907;28;20028;-43
2022/03/24 03:41:04;;;;;;;2.30;0.80;;;22.70;55.50;;;;;;5062127;28;20033;-42
2022/03/24 03:43:32;;;;;;;1.70;1.02;;;22.70;55.30;;;;;;5061972;28;20033;-42
2022/03/24 03:45:58;;;;;;;2.15;1.10;;;22.70;55.40;;;;;;5044282;28;20032;-43
2022/03/24 03:48:25;;;;;;;3.28;1.05;;;22.70;55.40;;;;;;5052424;28;20037;-43
2022/03/24 03:50:51;;;;;;;2.30;1.17;;;22.70;55.30;;;;;;5042338;28;20032;-43
2022/03/24 03:53:17;;;;;;;1.90;1.00;;;22.70;55.30;;;;;;5041885;28;20046;-42
2022/03/24 03:55:43;;;;;;;1.52;0.98;;;22.70;55.20;;;;;;5042484;28;20030;-43
2022/03/24 03:58:11;;;;;;;1.33;0.73;;;22.70;55.20;;;;;;5052812;28;20092;-43
2022/03/24 04:00:52;;;;;;;1.98;1.00;;;22.70;55.20;;;;;;5062209;28;20515;-43
2022/03/24 04:03:25;;;;;;;1.80;1.08;;;22.70;55.20;;;;;;5061460;28;20033;-43
2022/03/24 04:05:56;;;;;;;2.83;1.20;;;22.70;55.20;;;;;;5068705;28;20028;-43
2022/03/24 04:08:22;;;;;;;2.08;0.90;;;22.70;55.20;;;;;;5062351;28;20432;-42
2022/03/24 04:10:49;;;;;;;3.13;1.30;;;22.70;55.20;;;;;;5063216;28;20017;-43
2022/03/24 04:13:15;;;;;;;1.77;0.93;;;22.60;55.10;;;;;;5076850;28;20540;-42
2022/03/24 04:15:42;;;;;;;1.50;1.20;;;22.70;55.20;;;;;;5066626;28;20065;-42
2022/03/24 04:18:09;;;;;;;3.38;1.30;;;22.60;55.10;;;;;;5061423;28;20037;-43
2022/03/24 04:20:35;;;;;;;2.00;1.23;;;22.60;55.10;;;;;;5062065;28;20615;-42
2022/03/24 04:23:02;;;;;;;1.80;1.17;;;22.60;55.10;;;;;;5029221;28;20040;-42
2022/03/24 04:25:28;;;;;;;2.38;1.38;;;22.60;55.10;;;;;;5041779;28;20029;-42
2022/03/24 04:27:55;;;;;;;3.30;1.27;;;22.60;55.10;;;;;;5058116;28;20482;-42
2022/03/24 04:30:21;;;;;;;1.75;1.10;;;22.60;55.10;;;;;;5065773;28;20258;-42
2022/03/24 04:32:48;;;;;;;2.33;1.27;;;22.60;55.10;;;;;;5081354;28;20032;-42
2022/03/24 04:35:15;;;;;;;1.63;1.10;;;22.50;55.00;;;;;;5085497;28;20028;-43
2022/03/24 04:37:41;;;;;;;1.75;1.30;;;22.50;55.10;;;;;;5085720;28;20024;-44
2022/03/24 04:40:07;;;;;;;2.47;1.27;;;22.50;55.00;;;;;;5077616;28;20397;-43
2022/03/24 04:42:34;;;;;;;1.48;1.30;;;22.50;55.00;;;;;;5083759;28;20119;-42
2022/03/24 04:45:00;;;;;;;2.20;1.00;;;22.50;55.10;;;;;;5085011;28;20692;-44
2022/03/24 04:47:26;;;;;;;2.20;1.20;;;22.50;55.00;;;;;;5085208;28;20575;-43
2022/03/24 04:49:53;;;;;;;1.30;1.00;;;22.50;55.10;;;;;;5085211;28;20269;-43
2022/03/24 04:52:19;;;;;;;2.17;1.30;;;22.50;55.10;;;;;;5085287;28;20040;-43
2022/03/24 04:54:46;;;;;;;1.30;1.20;;;22.40;55.00;;;;;;5085305;28;20052;-43
2022/03/24 04:57:12;;;;;;;3.25;1.17;;;22.40;55.20;;;;;;5051703;28;20032;-43
2022/03/24 04:59:38;;;;;;;2.27;1.43;;;22.40;55.00;;;;;;5067412;28;20025;-43
2022/03/24 05:02:05;;;;;;;2.55;1.02;;;22.40;55.00;;;;;;5080783;28;20047;-43
2022/03/24 05:04:31;;;;;;;1.77;1.10;;;22.40;55.00;;;;;;5049572;28;20033;-44
2022/03/24 05:06:58;;;;;;;2.00;1.20;;;22.40;55.00;;;;;;5081713;28;20434;-42
2022/03/24 05:09:24;;;;;;;1.92;1.17;;;22.40;55.00;;;;;;5068840;28;20492;-42
2022/03/24 05:11:50;;;;;;;2.85;1.27;;;22.40;55.00;;;;;;5084856;28;20021;-43
2022/03/24 05:14:16;;;;;;;1.08;0.93;;;22.30;55.00;;;;;;5082174;28;20032;-43
2022/03/24 05:16:43;;;;;;;1.52;1.10;;;22.30;55.00;;;;;;5082350;28;20035;-43
2022/03/24 05:19:09;;;;;;;1.95;1.33;;;22.30;55.00;;;;;;5083353;28;20111;-43
2022/03/24 05:21:35;;;;;;;1.45;1.08;;;22.30;55.00;;;;;;5084866;28;20044;-42
2022/03/24 05:24:01;;;;;;;2.65;1.20;;;22.30;54.90;;;;;;5084596;28;20089;-43
2022/03/24 05:26:27;;;;;;;2.35;1.10;;;22.30;54.90;;;;;;5084520;28;20087;-43
2022/03/24 05:28:53;;;;;;;1.98;1.10;;;22.30;55.00;;;;;;5066726;28;20084;-44
2022/03/24 05:31:20;;;;;;;1.67;1.17;;;22.20;54.90;;;;;;5067111;28;20088;-43
2022/03/24 05:33:47;;;;;;;1.60;1.10;;;22.20;54.90;;;;;;5064858;28;20294;-43
2022/03/24 05:36:15;;;;;;;1.97;1.23;;;22.20;54.90;;;;;;5084304;28;20029;-43
2022/03/24 05:38:41;;;;;;;1.35;1.10;;;22.20;54.90;;;;;;5083380;28;20281;-43
2022/03/24 05:41:13;;;;;;;1.55;1.17;;;22.20;54.90;;;;;;5083625;28;20080;-43
2022/03/24 05:43:39;;;;;;;1.98;1.27;;;22.20;54.90;;;;;;5084108;28;20040;-42
2022/03/24 05:46:06;;;;;;;1.15;1.05;;;22.20;55.50;;;;;;5084210;28;20017;-42
2022/03/24 05:48:34;;;;;;;3.10;1.10;;;22.20;54.90;;;;;;5065213;28;20033;-44
2022/03/24 05:51:01;;;;;;;1.38;1.08;;;22.10;55.00;;;;;;5064317;28;20017;-43
2022/03/24 05:53:28;;;;;;;1.95;1.17;;;22.10;55.00;;;;;;5066134;28;20044;-43
2022/03/24 05:55:54;;;;;;;;;;;22.10;55.00;;;;;;5084331;28;20060;-43
2022/03/24 05:58:20;;;;;;;1.13;0.90;;;22.10;55.00;;;;;;5084230;28;19912;-43
2022/03/24 06:00:47;;;;;;;1.20;1.05;;;22.10;55.00;;;;;;5079062;28;20028;-42
2022/03/24 06:03:15;;;;;;;1.55;1.05;;;22.10;55.10;;;;;;5063757;28;20033;-42
2022/03/24 06:05:43;;;;;;;1.77;1.10;;;22.10;55.00;;;;;;5069643;28;20681;-42
2022/03/24 06:08:11;;;;;;;1.52;1.00;;;22.10;55.00;;;;;;5083958;28;20021;-42
2022/03/24 06:10:37;;;;;;;1.60;0.95;;;22.10;55.00;;;;;;5071642;28;20040;-42
2022/03/24 06:13:04;;;;;;;1.10;0.90;;;22.10;55.00;;;;;;5083147;28;20040;-42
2022/03/24 06:15:31;;;;;;;1.55;1.10;;;22.00;54.90;;;;;;5083839;28;20257;-43
2022/03/24 06:17:57;;;;;;;1.58;0.82;;;22.00;54.90;;;;;;5079576;28;20043;-43
2022/03/24 06:20:23;;;;;;;1.98;1.00;;;22.00;55.00;;;;;;5064415;28;20500;-42
2022/03/24 06:22:50;;;;;;;1.25;0.90;;;22.00;55.50;;;;;;5063581;28;20039;-43
2022/03/24 06:25:17;;;;;;;1.67;1.00;;;22.00;54.90;;;;;;5079635;28;20056;-43
2022/03/24 06:27:43;;;;;;;0.80;0.80;;;22.00;54.90;;;;;;5084748;28;20076;-44
2022/03/24 06:30:10;;;;;;;1.05;0.90;;;22.00;55.00;;;;;;5076513;28;20024;-43
2022/03/24 06:32:37;;;;;;;1.10;0.88;;;21.90;55.00;;;;;;5076275;28;20044;-43
2022/03/24 06:35:03;;;;;;;1.05;0.95;;;21.90;55.00;;;;;;5083428;28;20025;-43
2022/03/24 06:37:30;;;;;;;1.10;0.80;;;21.90;55.00;;;;;;5069370;28;20417;-43
2022/03/24 06:39:56;;;;;;;1.88;0.80;;;21.90;55.00;;;;;;5067980;28;20032;-43
2022/03/24 06:42:23;;;;;;;1.05;0.90;;;21.90;55.10;;;;;;5078044;28;21016;-43
2022/03/24 06:44:49;;;;;;;0.80;0.80;;;21.90;55.00;;;;;;5080528;28;20024;-43
2022/03/24 06:47:15;;;;;;;1.20;0.93;;;21.90;55.00;;;;;;5071628;28;20063;-44
2022/03/24 06:49:42;;;;;;;1.20;0.90;;;21.90;55.00;;;;;;5088789;28;20074;-44
2022/03/24 06:52:08;;;;;;;1.00;0.90;;;21.90;54.90;;;;;;5083681;28;20771;-43
2022/03/24 06:54:34;;;;;;;1.48;0.95;;;21.80;54.80;;;;;;5077875;28;20099;-43
2022/03/24 06:57:01;;;;;;;1.35;1.05;;;21.80;54.70;;;;;;5080660;28;20036;-43
2022/03/24 06:59:27;;;;;;;1.50;0.90;;;21.80;54.70;;;;;;5084587;28;20036;-43
2022/03/24 07:01:53;;;;;;;0.90;0.80;;;21.80;54.60;;;;;;5091284;28;20496;-42
2022/03/24 07:04:19;;;;;;;1.15;0.80;;;21.80;54.60;;;;;;5080356;28;20095;-42
2022/03/24 07:06:45;;;;;;;2.10;1.10;;;21.80;54.60;;;;;;5079246;28;20020;-42
2022/03/24 07:09:11;;;;;;;1.10;0.70;;;21.80;54.60;;;;;;5080367;28;20054;-42
2022/03/24 07:11:37;;;;;;;1.13;0.70;;;21.80;54.60;;;;;;5066840;28;20444;-42
2022/03/24 07:14:03;;;;;;;0.98;0.75;;;21.70;54.50;;;;;;5084625;28;20040;-42
2022/03/24 07:16:30;;;;;;;1.08;0.90;;;21.70;54.50;;;;;;5079069;28;20029;-42
2022/03/24 07:18:56;;;;;;;1.23;0.75;;;21.70;55.10;;;;;;5080485;28;20032;-42
2022/03/24 07:21:22;;;;;;;0.75;0.70;;;21.70;54.50;;;;;;5095192;28;20028;-42
2022/03/24 07:23:48;;;;;;;0.80;0.80;;;21.70;54.60;;;;;;5081349;28;20152;-41
2022/03/24 07:26:14;;;;;;;0.55;0.55;;;21.70;55.10;;;;;;5080021;28;20024;-41
2022/03/24 07:28:41;;;;;;;0.70;0.57;;;21.70;54.70;;;;;;5091822;28;20042;-41
2022/03/24 07:31:11;;;;;;;1.53;0.80;;;21.70;54.70;;;;;;5080138;28;20086;-41
2022/03/24 07:33:37;;;;;;;0.75;0.70;;;21.70;54.80;;;;;;5065577;28;20500;-42
2022/03/24 07:36:04;;;;;;;0.65;0.65;;;21.60;54.80;;;;;;5074642;28;20020;-43
2022/03/24 07:38:30;;;;;;;0.60;0.60;;;21.60;54.80;;;;;;5074717;28;20024;-42
2022/03/24 07:40:56;;;;;;;0.68;0.68;;;21.60;54.70;;;;;;5065958;28;20029;-42
2022/03/24 07:43:22;;;;;;;1.10;0.50;;;21.60;54.80;;;;;;5084197;28;20032;-43
2022/03/24 07:45:49;;;;;;;1.17;0.50;;;21.60;54.80;;;;;;5074519;28;20028;-43
2022/03/24 07:48:20;;;;;;;0.57;0.47;;;21.60;54.90;;;;;;5079804;28;20024;-42
2022/03/24 07:50:47;;;;;;;1.05;1.00;;;21.50;54.90;;;;;;5089765;28;20055;-42
2022/03/24 07:53:30;;;;;;;0.85;0.70;;;21.50;54.80;;;;;;5085524;28;20032;-42
2022/03/24 07:55:57;;;;;;;0.65;0.60;;;21.50;54.80;;;;;;5067239;28;20060;-42
2022/03/24 07:58:23;;;;;;;1.50;0.80;;;21.50;54.80;;;;;;5072012;28;20024;-42
2022/03/24 08:00:50;;;;;;;0.65;0.60;;;21.50;54.80;;;;;;5062992;28;20040;-41
2022/03/24 08:03:17;;;;;;;0.57;0.40;;;21.50;55.00;;;;;;5081952;28;20029;-42
2022/03/24 08:05:43;;;;;;;0.55;0.50;;;21.50;55.00;;;;;;5088279;28;20249;-42
2022/03/24 08:08:10;;;;;;;0.47;0.40;;;21.50;54.80;;;;;;5061521;28;20029;-41
2022/03/24 08:10:40;;;;;;;1.08;0.57;;;21.40;54.70;;;;;;5083184;28;20048;-42
2022/03/24 08:13:06;;;;;;;1.10;0.70;;;21.40;54.60;;;;;;5084321;28;20036;-42
2022/03/24 08:15:32;;;;;;;0.40;0.40;;;21.40;54.70;;;;;;5086962;28;20048;-42
2022/03/24 08:17:59;;;;;;;1.15;0.60;;;21.40;54.80;;;;;;5058967;28;20091;-42
2022/03/24 08:20:25;;;;;;;2.28;0.60;;;21.40;54.90;;;;;;5082796;28;20071;-42
2022/03/24 08:22:54;;;;;;;0.50;0.50;;;21.40;54.90;;;;;;5087852;28;20024;-42
2022/03/24 08:25:20;;;;;;;0.70;0.40;;;21.40;54.80;;;;;;5067422;28;20021;-42
2022/03/24 08:27:46;;;;;;;0.98;0.50;;;21.40;55.00;;;;;;5078555;28;20060;-42
2022/03/24 08:30:13;;;;;;;0.50;0.30;;;21.40;55.10;;;;;;5081763;28;20720;-43
2022/03/24 08:32:39;;;;;;;0.47;0.40;;;21.40;55.10;;;;;;5071646;28;20080;-42
2022/03/24 08:35:06;;;;;;;0.40;0.40;;;21.40;54.90;;;;;;5068997;28;20363;-42
2022/03/24 08:37:32;;;;;;;0.50;0.50;;;21.40;54.80;;;;;;5087950;28;20044;-44
2022/03/24 08:39:58;;;;;;;0.52;0.43;;;21.40;54.80;;;;;;5080172;28;20033;-42
2022/03/24 08:42:24;;;;;;;0.43;0.43;;;21.30;54.70;;;;;;5087221;28;20032;-42
2022/03/24 08:44:50;;;;;;;0.50;0.40;;;21.40;54.90;;;;;;5085711;28;20523;-43
2022/03/24 08:47:17;;;;;;;0.40;0.40;;;21.40;54.90;;;;;;5085464;28;20032;-42
2022/03/24 08:49:43;;;;;;;0.50;0.50;;;21.30;54.70;;;;;;5085167;28;20024;-42
2022/03/24 08:52:10;;;;;;;0.35;0.35;;;21.30;54.70;;;;;;5082091;28;20040;-42
2022/03/24 08:54:36;;;;;;;0.40;0.38;;;21.30;54.80;;;;;;5084834;28;20111;-42
2022/03/24 08:57:02;;;;;;;0.25;0.25;;;21.30;55.10;;;;;;5085213;28;20101;-42
2022/03/24 08:59:28;;;;;;;1.20;0.40;;;21.30;55.20;;;;;;5103967;28;20087;-42
2022/03/24 09:01:55;;;;;;;0.50;0.50;;;21.30;54.80;;;;;;5097177;28;20036;-44
2022/03/24 09:04:26;;;;;;;0.30;0.30;;;21.30;54.80;;;;;;5085394;28;20033;-44
2022/03/24 09:06:53;;;;;;;0.52;0.30;;;21.30;54.70;;;;;;5085586;28;20062;-42
2022/03/24 09:09:22;;;;;;;0.40;0.40;;;21.30;54.70;;;;;;5083939;28;20024;-42
2022/03/24 09:11:51;;;;;;;0.30;0.30;;;21.30;54.80;;;;;;5072645;28;20037;-42
2022/03/24 09:14:17;;;;;;;0.40;0.40;;;21.30;54.80;;;;;;5094551;28;20036;-43
2022/03/24 09:16:44;;;;;;;0.50;0.38;;;21.30;54.80;;;;;;5078512;28;20052;-42
2022/03/24 09:19:12;;;;;;;0.57;0.40;;;21.30;55.00;;;;;;5084829;28;20024;-42
2022/03/24 09:21:38;;;;;;;0.25;0.25;;;21.30;55.30;;;;;;5085152;28;20029;-42
2022/03/24 09:24:05;;;;;;;0.40;0.40;;;21.30;55.00;;;;;;5084815;28;20032;-42
2022/03/24 09:26:32;;;;;;;0.32;0.22;;;21.30;54.90;;;;;;5084770;28;20135;-42
2022/03/24 09:28:59;;;;;;;0.50;0.50;;;21.30;54.80;;;;;;5070387;28;20056;-43
2022/03/24 09:31:25;;;;;;;0.30;0.30;;;21.30;54.80;;;;;;5064859;28;20114;-42
2022/03/24 09:33:51;;;;;;;0.40;0.30;;;21.30;54.80;;;;;;5064908;28;20033;-42
2022/03/24 09:36:18;;;;;;;0.28;0.25;;;21.30;55.30;;;;;;5081690;28;20186;-42
2022/03/24 09:38:44;;;;;;;0.30;0.30;;;21.30;54.70;;;;;;5081461;28;20492;-45
2022/03/24 09:41:11;;;;;;;0.63;0.30;;;21.30;54.90;;;;;;5083716;28;20055;-42
2022/03/24 09:43:37;;;;;;;0.40;0.30;;;21.30;55.20;;;;;;5064345;28;20041;-42
2022/03/24 09:46:04;;;;;;;0.38;0.28;;;21.30;55.20;;;;;;5056880;28;20029;-42
2022/03/24 09:48:30;;;;;;;0.40;0.40;;;21.30;54.80;;;;;;5080595;28;20028;-42
2022/03/24 09:50:56;;;;;;;0.30;0.30;;;21.30;54.70;;;;;;5063931;28;20043;-42
2022/03/24 09:53:23;;;;;;;0.60;0.20;;;21.30;54.70;;;;;;5082027;28;20132;-41
2022/03/24 09:55:50;;;;;;;0.30;0.30;;;21.30;54.60;;;;;;5084439;28;20024;-42
2022/03/24 09:58:16;;;;;;;0.40;0.30;;;21.30;54.70;;;;;;5089817;28;20277;-41
2022/03/24 10:00:42;;;;;;;0.50;0.35;;;21.30;54.70;;;;;;5080535;28;20039;-42
2022/03/24 10:03:22;;;;;;;0.30;0.30;;;21.20;54.80;;;;;;5082506;28;20037;-42
2022/03/24 10:06:06;;;;;;;0.20;0.20;;;21.30;55.10;;;;;;5083264;28;20028;-43
2022/03/24 10:08:33;;;;;;;0.20;0.20;;;21.30;55.00;;;;;;5081465;28;20031;-43
2022/03/24 10:11:09;;;;;;;0.40;0.30;;;21.30;54.90;;;;;;5080253;28;20127;-43
2022/03/24 10:13:45;;;;;;;0.30;0.30;;;21.30;54.70;;;;;;5081046;28;20037;-43
2022/03/24 10:16:13;;;;;;;0.20;0.20;;;21.20;54.70;;;;;;5072997;28;20036;-42
2022/03/24 10:19:02;;;;;;;0.40;0.30;;;21.30;54.60;;;;;;5068730;28;22450;-42
2022/03/24 10:21:29;;;;;;;1.20;0.30;;;21.30;54.60;;;;;;5068785;28;20092;-42
2022/03/24 10:24:00;;;;;;;0.20;0.20;;;21.20;54.70;;;;;;5081601;28;20088;-41
2022/03/24 10:26:47;;;;;;;0.60;0.28;;;21.30;54.90;;;;;;5081717;28;20032;-42
2022/03/24 10:29:15;;;;;;;0.40;0.30;;;21.20;54.80;;;;;;5086070;28;20058;-42
2022/03/24 10:31:43;;;;;;;0.73;0.30;;;21.30;54.70;;;;;;5083236;28;20020;-43
2022/03/24 10:34:12;;;;;;;0.28;0.28;;;21.20;54.70;;;;;;5080644;28;20041;-42
2022/03/24 10:36:41;;;;;;;0.45;0.22;;;21.20;54.60;;;;;;5086462;28;20024;-43
2022/03/24 10:39:09;;;;;;;0.20;0.20;;;21.20;54.60;;;;;;5085233;28;20040;-42
2022/03/24 10:41:36;;;;;;;0.20;0.20;;;21.20;54.60;;;;;;5083148;28;20082;-42
2022/03/24 10:44:06;;;;;;;;;;;21.20;54.60;;;;;;5081309;28;20113;-43
2022/03/24 10:46:33;;;;;;;0.20;0.20;;;21.20;55.30;;;;;;5077355;28;19916;-43
2022/03/24 10:49:13;;;;;;;3.30;0.30;;;21.20;54.90;;;;;;5079652;28;20036;-48
2022/03/24 10:51:42;;;;;;;0.25;0.20;;;21.20;54.70;;;;;;5081864;28;20036;-42
2022/03/24 10:54:28;;;;;;;0.20;0.20;;;21.20;54.60;;;;;;5079706;28;20062;-43
2022/03/24 10:57:08;;;;;;;0.17;0.17;;;21.20;54.60;;;;;;5084987;28;20036;-42
2022/03/24 10:59:38;;;;;;;0.25;0.22;;;21.20;54.60;;;;;;5079893;28;20032;-43
2022/03/24 11:02:04;;;;;;;0.30;0.20;;;21.20;54.60;;;;;;5081879;28;20040;-43
2022/03/24 11:04:31;;;;;;;0.30;0.30;;;21.20;55.30;;;;;;5077874;28;20125;-42
2022/03/24 11:06:57;;;;;;;0.17;0.17;;;21.20;54.90;;;;;;5080548;28;20036;-42
2022/03/24 11:09:45;;;;;;;0.22;0.20;;;21.20;54.80;;;;;;5078870;28;20029;-42
2022/03/24 11:12:36;;;;;;;0.30;0.20;;;21.20;54.60;;;;;;4999842;28;20038;-42
2022/03/24 11:15:04;;;;;;;0.28;0.20;;;21.20;54.60;;;;;;5006195;28;20375;-43
2022/03/24 11:17:31;;;;;;;0.10;0.10;;;21.20;54.50;;;;;;5006452;28;20058;-42
2022/03/24 11:20:06;;;;;;;0.45;0.20;;;21.10;54.60;;;;;;4999448;28;20062;-43
2022/03/24 11:23:01;;;;;;;0.43;0.30;;;21.10;54.50;;;;;;5004027;28;20026;-42
2022/03/24 11:25:28;;;;;;;0.10;0.10;;;21.10;54.50;;;;;;4984495;28;20100;-41
2022/03/24 11:27:54;;;;;;;0.25;0.20;;;21.10;54.80;;;;;;5000129;28;20059;-42
2022/03/24 11:30:21;;;;;;;0.23;0.10;;;21.10;54.70;;;;;;4999618;28;20129;-42
2022/03/24 11:32:49;;;;;;;0.40;0.20;;;21.20;54.60;;;;;;4998454;28;20038;-42
2022/03/24 11:35:16;;;;;;;0.52;0.20;;;21.10;54.60;;;;;;4983866;28;20046;-42
2022/03/24 11:37:42;;;;;;;0.20;0.13;;;21.10;54.60;;;;;;4999863;28;20104;-41
2022/03/24 11:40:08;;;;;;;0.22;0.20;;;21.10;54.50;;;;;;5000627;28;20034;-42
2022/03/24 11:42:59;;;;;;;0.32;0.20;;;21.10;54.40;;;;;;4999775;28;20038;-41
2022/03/24 11:45:29;;;;;;;0.63;0.20;;;21.10;54.70;;;;;;4981260;28;20065;-41
2022/03/24 11:48:03;;;;;;;0.13;0.13;;;21.10;54.80;;;;;;4986246;28;20519;-42
2022/03/24 11:50:52;;;;;;;0.20;0.20;;;21.10;54.60;;;;;;5098609;28;20858;-41
2022/03/24 11:53:19;;;;;;;0.20;0.20;;;21.10;54.50;;;;;;5076248;28;20520;-41
2022/03/24 11:56:04;;;;;;;0.10;0.10;;;21.10;54.50;;;;;;5079614;28;20040;-43
2022/03/24 11:58:31;;;;;;;0.20;0.20;;;21.10;54.50;;;;;;5097870;28;20028;-41
2022/03/24 12:01:17;;;;;;;0.30;0.20;;;21.10;54.60;;;;;;5081470;28;20028;-42
2022/03/24 12:03:45;;;;;;;0.20;0.20;;;21.10;54.70;;;;;;5077026;28;20043;-43
2022/03/24 12:06:13;;;;;;;0.28;0.15;;;21.10;54.90;;;;;;5076202;28;20031;-42
2022/03/24 12:08:49;;;;;;;0.10;0.10;;;21.10;54.80;;;;;;5070123;28;20032;-41
2022/03/24 12:11:33;;;;;;;0.30;0.20;;;21.10;54.70;;;;;;5077033;28;20056;-41
2022/03/24 12:14:14;;;;;;;0.65;0.20;;;21.10;54.70;;;;;;5080510;28;20066;-42
2022/03/24 12:16:42;;;;;;;0.30;0.20;;;21.10;54.70;;;;;;5075619;28;20016;-42
2022/03/24 12:19:40;;;;;;;0.10;0.10;;;21.10;54.50;;;;;;5069878;28;20037;-41
2022/03/24 12:22:25;;;;;;;0.17;0.17;;;21.10;54.50;;;;;;5071235;28;20110;-44
2022/03/24 12:25:14;;;;;;;0.32;0.30;;;21.10;54.70;;;;;;5077177;28;20021;-41
2022/03/24 12:27:57;;;;;;;1.17;0.30;;;21.10;54.60;;;;;;5067825;28;20041;-42
2022/03/24 12:30:24;;;;;;;0.10;0.10;;;21.10;54.60;;;;;;5077364;28;20024;-42
2022/03/24 12:33:09;;;;;;;;;;;21.10;54.50;;;;;;5076330;28;20033;-42
2022/03/24 12:35:55;;;;;;;0.32;0.17;;;21.10;54.50;;;;;;5083063;28;19908;-41
2022/03/24 12:38:27;;;;;;;0.38;0.10;;;21.00;54.40;;;;;;5098817;28;20035;-43
2022/03/24 12:41:06;;;;;;;0.17;0.17;;;21.10;54.50;;;;;;5079834;28;20557;-42
2022/03/24 12:43:46;;;;;;;0.10;0.10;;;21.10;54.70;;;;;;5102318;28;20040;-42
2022/03/24 12:46:37;;;;;;;0.40;0.10;;;21.10;54.70;;;;;;5091426;28;20028;-41
2022/03/24 12:49:11;;;;;;;0.15;0.15;;;21.10;54.60;;;;;;5062917;28;20056;-41
2022/03/24 12:51:50;;;;;;;0.10;0.10;;;21.10;54.60;;;;;;5066123;28;20033;-41
2022/03/24 12:54:17;;;;;;;0.10;0.10;;;21.10;54.60;;;;;;5093556;28;20047;-43
2022/03/24 12:56:43;;;;;;;0.80;0.10;;;21.10;54.50;;;;;;5105293;28;20024;-41
2022/03/24 12:59:12;;;;;;;0.10;0.10;;;21.10;54.40;;;;;;5105657;28;20032;-41